createdAt,value
2022-11-27T00:01:35.986Z,72.60
2022-11-27T00:04:05.413Z,71.90
2022-11-27T00:06:34.352Z,65.40
2022-11-27T00:09:06.211Z,67.80
2022-11-27T00:11:34.530Z,64.80
2022-11-27T00:14:02.557Z,66.80
2022-11-27T00:16:30.612Z,65.00
2022-11-27T00:18:59.058Z,65.60
2022-11-27T00:21:29.947Z,66.50
2022-11-27T00:24:00.331Z,66.60
2022-11-27T00:26:34.450Z,62.80
2022-11-27T00:29:07.168Z,67.80
2022-11-27T00:31:38.200Z,62.50
2022-11-27T00:34:08.621Z,63.00
2022-11-27T00:36:38.371Z,63.30
2022-11-27T00:39:06.881Z,64.50
2022-11-27T00:41:35.570Z,73.10
2022-11-27T00:44:04.096Z,68.70
2022-11-27T00:46:34.345Z,64.80
2022-11-27T00:49:05.387Z,64.90
2022-11-27T00:51:33.755Z,70.30
2022-11-27T00:54:02.122Z,68.30
2022-11-27T00:56:33.365Z,72.60
2022-11-27T00:59:01.618Z,78.60
2022-11-27T01:01:41.410Z,76.30
2022-11-27T01:04:14.763Z,80.90
2022-11-27T01:06:43.956Z,72.30
2022-11-27T01:09:13.388Z,77.00
2022-11-27T01:11:41.628Z,75.60
2022-11-27T01:14:15.239Z,76.20
2022-11-27T01:16:43.595Z,73.40
2022-11-27T01:19:13.726Z,66.40
2022-11-27T01:21:42.417Z,71.80
2022-11-27T01:24:13.249Z,70.10
2022-11-27T01:26:41.932Z,71.50
2022-11-27T01:29:10.309Z,65.50
2022-11-27T01:31:38.406Z,64.00
2022-11-27T01:34:09.107Z,61.90
2022-11-27T01:36:37.189Z,66.30
2022-11-27T01:39:05.577Z,67.20
2022-11-27T01:41:35.934Z,62.30
2022-11-27T01:44:23.932Z,63.70
2022-11-27T01:47:05.691Z,62.70
2022-11-27T01:49:41.204Z,58.20
2022-11-27T01:52:17.889Z,58.20
2022-11-27T01:54:48.530Z,63.70
2022-11-27T01:57:24.610Z,56.90
2022-11-27T01:59:54.915Z,57.10
2022-11-27T02:02:23.002Z,57.70
2022-11-27T02:04:51.606Z,55.00
2022-11-27T02:07:19.691Z,57.90
2022-11-27T02:09:47.948Z,58.70
2022-11-27T02:12:25.419Z,58.30
2022-11-27T02:15:14.674Z,58.30
2022-11-27T02:17:55.062Z,54.70
2022-11-27T02:20:29.181Z,55.30
2022-11-27T02:23:06.158Z,48.60
2022-11-27T02:26:09.520Z,49.10
2022-11-27T02:29:10.820Z,51.40
2022-11-27T02:32:00.272Z,49.50
2022-11-27T02:34:31.212Z,50.20
2022-11-27T02:37:37.109Z,51.70
2022-11-27T02:40:13.353Z,56.40
2022-11-27T02:42:46.482Z,50.50
2022-11-27T02:48:36.286Z,51.70
2022-11-27T02:51:06.153Z,52.80
2022-11-27T02:53:39.986Z,47.80
2022-11-27T02:56:12.855Z,44.90
2022-11-27T02:58:42.434Z,43.50
2022-11-27T03:01:12.561Z,43.40
2022-11-27T03:03:46.079Z,42.20
2022-11-27T03:06:20.915Z,49.10
2022-11-27T03:08:55.765Z,44.20
2022-11-27T03:11:24.703Z,46.60
2022-11-27T03:13:56.393Z,45.40
2022-11-27T03:16:24.429Z,49.50
2022-11-27T03:18:58.934Z,47.30
2022-11-27T03:21:30.026Z,43.20
2022-11-27T03:23:59.165Z,43.10
2022-11-27T03:26:27.362Z,42.40
2022-11-27T03:28:58.346Z,44.00
2022-11-27T03:31:27.134Z,41.00
2022-11-27T03:33:55.286Z,39.90
2022-11-27T03:36:23.376Z,41.20
2022-11-27T03:38:55.423Z,41.20
2022-11-27T03:41:50.726Z,44.80
2022-11-27T03:44:36.891Z,43.60
2022-11-27T03:47:38.770Z,41.10
2022-11-27T03:50:35.919Z,40.30
2022-11-27T03:53:09.713Z,41.50
2022-11-27T03:55:54.818Z,44.80
2022-11-27T03:58:34.465Z,46.70
2022-11-27T04:01:06.540Z,44.80
2022-11-27T04:03:36.170Z,47.80
2022-11-27T04:06:04.319Z,47.90
2022-11-27T04:08:32.414Z,45.50
2022-11-27T04:11:00.392Z,43.10
2022-11-27T04:13:28.399Z,41.00
2022-11-27T04:15:59.994Z,43.40
2022-11-27T04:18:28.056Z,42.50
2022-11-27T04:20:56.186Z,42.60
2022-11-27T04:23:24.301Z,43.00
2022-11-27T04:25:52.454Z,44.10
2022-11-27T04:28:20.498Z,42.20
2022-11-27T04:30:54.906Z,41.90
2022-11-27T04:33:23.121Z,41.00
2022-11-27T04:35:52.087Z,41.90
2022-11-27T04:38:21.686Z,40.20
2022-11-27T04:40:52.019Z,44.30
2022-11-27T04:43:20.212Z,39.80
2022-11-27T04:45:48.139Z,42.00
2022-11-27T04:48:16.106Z,41.20
2022-11-27T04:50:44.231Z,40.20
2022-11-27T04:53:12.319Z,42.00
2022-11-27T04:55:40.370Z,37.50
2022-11-27T04:58:08.481Z,39.40
2022-11-27T05:00:36.505Z,40.90
2022-11-27T05:03:04.639Z,43.30
2022-11-27T05:05:32.688Z,40.60
2022-11-27T05:08:00.657Z,39.10
2022-11-27T05:10:28.660Z,40.60
2022-11-27T05:12:56.657Z,36.80
2022-11-27T05:15:24.632Z,41.70
2022-11-27T05:17:52.616Z,38.10
2022-11-27T05:20:20.592Z,38.20
2022-11-27T05:22:49.744Z,38.30
2022-11-27T05:25:17.780Z,36.40
2022-11-27T05:27:45.755Z,37.60
2022-11-27T05:30:13.742Z,37.80
2022-11-27T05:32:41.683Z,39.00
2022-11-27T05:35:09.873Z,42.80
2022-11-27T05:37:37.826Z,41.40
2022-11-27T05:40:06.672Z,41.60
2022-11-27T05:42:34.662Z,43.10
2022-11-27T05:45:02.863Z,40.30
2022-11-27T05:47:30.830Z,40.60
2022-11-27T05:49:58.835Z,40.90
2022-11-27T05:52:27.357Z,44.60
2022-11-27T05:54:56.611Z,40.30
2022-11-27T05:57:24.602Z,39.20
2022-11-27T05:59:52.691Z,39.40
2022-11-27T06:02:25.016Z,38.80
2022-11-27T06:04:55.974Z,37.80
2022-11-27T06:07:24.033Z,38.20
2022-11-27T06:09:52.211Z,37.90
2022-11-27T06:12:20.270Z,37.20
2022-11-27T06:14:48.257Z,35.90
2022-11-27T06:17:16.711Z,38.20
2022-11-27T06:19:44.701Z,41.30
2022-11-27T06:22:12.702Z,39.00
2022-11-27T06:24:41.077Z,39.50
2022-11-27T06:27:09.333Z,41.60
2022-11-27T06:29:37.996Z,39.30
2022-11-27T06:32:06.761Z,43.20
2022-11-27T06:34:34.815Z,40.40
2022-11-27T06:37:02.856Z,38.10
2022-11-27T06:39:31.040Z,36.60
2022-11-27T06:41:59.068Z,35.20
2022-11-27T06:44:27.194Z,36.40
2022-11-27T06:46:55.179Z,37.80
2022-11-27T06:49:23.265Z,37.40
2022-11-27T06:51:51.219Z,37.70
2022-11-27T06:54:19.204Z,41.70
2022-11-27T06:56:50.340Z,38.10
2022-11-27T06:59:19.096Z,39.70
2022-11-27T07:01:47.190Z,41.20
2022-11-27T07:04:16.431Z,39.80
2022-11-27T07:06:44.476Z,42.50
2022-11-27T07:09:12.489Z,42.20
2022-11-27T07:11:40.572Z,42.70
2022-11-27T07:14:08.751Z,40.00
2022-11-27T07:16:37.358Z,40.10
2022-11-27T07:19:07.749Z,44.00
2022-11-27T07:21:37.276Z,44.80
2022-11-27T07:24:05.616Z,43.90
2022-11-27T07:26:33.685Z,46.60
2022-11-27T07:29:01.646Z,39.80
2022-11-27T07:31:30.960Z,37.30
2022-11-27T07:33:59.270Z,37.20
2022-11-27T07:36:30.481Z,34.90
2022-11-27T07:38:58.678Z,41.90
2022-11-27T07:41:32.105Z,42.00
2022-11-27T07:44:02.042Z,39.10
2022-11-27T07:46:30.597Z,38.20
2022-11-27T07:49:00.678Z,39.20
2022-11-27T07:51:29.541Z,37.40
2022-11-27T07:53:57.612Z,35.00
2022-11-27T07:56:25.813Z,36.20
2022-11-27T07:58:53.819Z,38.10
2022-11-27T08:01:22.410Z,38.60
2022-11-27T08:03:50.486Z,38.50
2022-11-27T08:06:24.057Z,42.60
2022-11-27T08:08:52.988Z,42.70
2022-11-27T08:11:27.083Z,41.50
2022-11-27T08:14:00.189Z,39.70
2022-11-27T08:16:28.894Z,41.60
2022-11-27T08:18:57.528Z,40.90
2022-11-27T08:21:26.642Z,39.60
2022-11-27T08:23:55.042Z,38.90
2022-11-27T08:26:23.007Z,36.00
2022-11-27T08:28:53.016Z,37.40
2022-11-27T08:31:21.584Z,36.90
2022-11-27T08:33:49.661Z,37.50
2022-11-27T08:36:18.517Z,31.60
2022-11-27T08:38:47.129Z,32.40
2022-11-27T08:41:15.238Z,31.80
2022-11-27T08:43:43.312Z,33.80
2022-11-27T08:46:12.017Z,33.40
2022-11-27T08:48:40.560Z,32.00
2022-11-27T08:51:11.599Z,33.40
2022-11-27T08:53:40.234Z,34.40
2022-11-27T08:56:14.039Z,35.90
2022-11-27T08:58:42.756Z,35.00
2022-11-27T09:01:25.935Z,34.70
2022-11-27T09:03:54.473Z,36.00
2022-11-27T09:06:25.478Z,37.10
2022-11-27T09:08:56.678Z,37.10
2022-11-27T09:11:24.760Z,38.60
2022-11-27T09:13:53.512Z,40.00
2022-11-27T09:16:22.869Z,37.90
2022-11-27T09:18:52.645Z,36.50
2022-11-27T09:21:22.955Z,34.10
2022-11-27T09:24:01.951Z,33.40
2022-11-27T09:26:30.744Z,32.80
2022-11-27T09:28:59.214Z,32.40
2022-11-27T09:31:27.765Z,33.90
2022-11-27T09:33:55.924Z,33.80
2022-11-27T09:36:25.938Z,32.20
2022-11-27T09:38:54.730Z,31.50
2022-11-27T09:41:55.223Z,30.60
2022-11-27T09:44:46.570Z,31.90
2022-11-27T09:47:24.058Z,33.10
2022-11-27T09:50:01.729Z,33.10
2022-11-27T09:52:32.445Z,34.70
2022-11-27T09:55:16.207Z,33.90
2022-11-27T09:57:53.815Z,34.60
2022-11-27T10:00:22.274Z,36.10
2022-11-27T10:02:50.428Z,35.70
2022-11-27T10:05:22.949Z,34.20
2022-11-27T10:08:09.542Z,33.00
2022-11-27T10:10:46.864Z,34.20
2022-11-27T10:13:20.963Z,36.60
2022-11-27T10:15:56.765Z,36.00
2022-11-27T10:18:46.770Z,35.50
2022-11-27T10:21:29.769Z,42.00
2022-11-27T10:24:03.121Z,35.40
2022-11-27T10:26:54.318Z,34.10
2022-11-27T10:29:48.843Z,38.70
2022-11-27T10:32:53.556Z,35.20
2022-11-27T10:35:20.233Z,33.70
2022-11-27T10:38:23.724Z,33.70
2022-11-27T10:40:59.062Z,41.60
2022-11-27T10:43:27.073Z,32.50
2022-11-27T10:46:15.401Z,30.50
2022-11-27T10:48:43.516Z,30.30
2022-11-27T10:51:18.610Z,30.40
2022-11-27T10:53:51.134Z,28.50
2022-11-27T10:56:50.715Z,27.70
2022-11-27T10:59:31.349Z,26.50
2022-11-27T11:02:03.504Z,26.80
2022-11-27T11:04:39.705Z,26.40
2022-11-27T11:07:26.012Z,27.70
2022-11-27T11:09:55.359Z,27.20
2022-11-27T11:12:24.181Z,25.90
2022-11-27T11:14:58.890Z,26.10
2022-11-27T11:17:34.347Z,26.00
2022-11-27T11:20:22.882Z,25.80
2022-11-27T11:22:51.559Z,25.60
2022-11-27T11:25:21.716Z,27.10
2022-11-27T11:27:51.850Z,26.10
2022-11-27T11:30:30.281Z,25.70
2022-11-27T11:33:03.065Z,26.20
2022-11-27T11:35:34.809Z,29.80
2022-11-27T11:38:05.725Z,35.20
2022-11-27T11:40:36.859Z,38.00
2022-11-27T11:43:21.131Z,39.30
2022-11-27T11:45:49.256Z,38.60
2022-11-27T11:48:28.557Z,39.60
2022-11-27T11:51:19.588Z,37.70
2022-11-27T11:54:12.517Z,34.50
2022-11-27T11:56:49.659Z,35.30
2022-11-27T11:59:45.174Z,37.50
2022-11-27T12:02:35.025Z,41.10
2022-11-27T12:05:29.826Z,46.00
2022-11-27T12:08:31.869Z,37.60
2022-11-27T12:11:12.284Z,33.30
2022-11-27T12:14:03.326Z,37.60
2022-11-27T12:16:43.759Z,36.80
2022-11-27T12:19:32.231Z,32.80
2022-11-27T12:22:09.472Z,29.80
2022-11-27T12:25:03.116Z,32.80
2022-11-27T12:27:52.764Z,31.30
2022-11-27T12:30:28.318Z,29.50
2022-11-27T12:33:14.535Z,34.80
2022-11-27T12:36:13.649Z,43.60
2022-11-27T12:39:09.799Z,44.70
2022-11-27T12:41:46.819Z,47.20
2022-11-27T12:44:28.653Z,45.90
2022-11-27T12:47:05.329Z,43.30
2022-11-27T12:49:57.548Z,40.30
2022-11-27T12:52:35.140Z,39.20
2022-11-27T12:55:15.935Z,37.40
2022-11-27T12:57:49.895Z,36.80
2022-11-27T13:00:21.122Z,33.50
2022-11-27T13:03:07.277Z,36.20
2022-11-27T13:05:44.165Z,37.60
2022-11-27T13:08:21.962Z,41.10
2022-11-27T13:10:56.953Z,43.40
2022-11-27T13:13:37.922Z,45.70
2022-11-27T13:16:24.627Z,43.30
2022-11-27T13:19:05.950Z,44.50
2022-11-27T13:21:35.549Z,42.00
2022-11-27T13:24:04.646Z,41.90
2022-11-27T13:26:44.536Z,47.90
2022-11-27T13:29:34.203Z,53.20
2022-11-27T13:32:04.206Z,53.70
2022-11-27T13:34:41.503Z,58.10
2022-11-27T13:37:21.101Z,56.80
2022-11-27T13:39:49.103Z,46.20
2022-11-27T13:42:21.272Z,40.80
2022-11-27T13:45:18.056Z,38.40
2022-11-27T13:47:47.112Z,41.60
2022-11-27T13:50:19.151Z,48.70
2022-11-27T13:53:00.715Z,50.00
2022-11-27T13:55:34.803Z,66.00
2022-11-27T13:58:04.070Z,64.60
2022-11-27T14:00:34.371Z,68.80
2022-11-27T14:03:04.188Z,67.80
2022-11-27T14:05:42.782Z,69.50
2022-11-27T14:08:35.789Z,61.90
2022-11-27T14:11:07.013Z,59.20
2022-11-27T14:13:45.982Z,48.10
2022-11-27T14:16:19.838Z,38.90
2022-11-27T14:18:53.256Z,34.80
2022-11-27T14:21:31.183Z,31.50
2022-11-27T14:24:00.859Z,32.40
2022-11-27T14:26:31.471Z,31.50
2022-11-27T14:29:00.831Z,30.20
2022-11-27T14:31:35.899Z,30.10
2022-11-27T14:34:24.558Z,29.30
2022-11-27T14:36:53.147Z,30.20
2022-11-27T14:39:27.914Z,30.00
2022-11-27T14:41:57.609Z,31.00
2022-11-27T14:44:25.710Z,30.50
2022-11-27T14:46:55.244Z,29.80
2022-11-27T14:49:26.033Z,29.80
2022-11-27T14:51:56.660Z,32.00
2022-11-27T14:54:32.634Z,34.20
2022-11-27T14:57:00.758Z,33.00
2022-11-27T14:59:28.800Z,31.70
2022-11-27T15:01:59.858Z,33.00
2022-11-27T15:04:39.876Z,33.10
2022-11-27T15:07:28.125Z,31.50
2022-11-27T15:09:58.660Z,33.40
2022-11-27T15:12:30.132Z,32.70
2022-11-27T15:15:09.940Z,32.40
2022-11-27T15:17:40.088Z,33.60
2022-11-27T15:20:33.796Z,35.30
2022-11-27T15:23:02.796Z,38.40
2022-11-27T15:25:44.864Z,46.10
2022-11-27T15:28:54.773Z,46.30
2022-11-27T15:31:34.244Z,59.10
2022-11-27T15:34:14.434Z,61.00
2022-11-27T15:36:43.596Z,64.60
2022-11-27T15:39:20.864Z,64.00
2022-11-27T15:41:52.890Z,64.30
2022-11-27T15:44:21.568Z,65.20
2022-11-27T15:46:51.068Z,57.50
2022-11-27T15:49:19.868Z,63.90
2022-11-27T15:51:47.884Z,60.30
2022-11-27T15:54:15.970Z,56.00
2022-11-27T15:56:44.144Z,46.90
2022-11-27T15:59:12.204Z,44.70
2022-11-27T16:01:40.311Z,45.40
2022-11-27T16:04:08.344Z,43.00
2022-11-27T16:06:37.573Z,39.00
2022-11-27T16:09:06.159Z,38.50
2022-11-27T16:11:34.293Z,35.90
2022-11-27T16:14:02.297Z,36.60
2022-11-27T16:16:31.253Z,39.20
2022-11-27T16:19:01.265Z,40.90
2022-11-27T16:21:30.228Z,46.80
2022-11-27T16:23:59.817Z,52.20
2022-11-27T16:26:28.585Z,53.60
2022-11-27T16:28:56.638Z,55.20
2022-11-27T16:31:25.990Z,58.80
2022-11-27T16:33:54.486Z,57.60
2022-11-27T16:36:25.141Z,57.40
2022-11-27T16:38:54.729Z,66.20
2022-11-27T16:41:25.979Z,63.30
2022-11-27T16:43:57.030Z,60.30
2022-11-27T16:46:29.082Z,58.60
2022-11-27T16:48:59.187Z,58.20
2022-11-27T16:51:31.783Z,61.50
2022-11-27T16:54:02.707Z,60.30
2022-11-27T16:56:33.498Z,66.60
2022-11-27T16:59:13.101Z,103.10
2022-11-27T17:01:42.547Z,83.00
2022-11-27T17:04:19.640Z,77.80
2022-11-27T17:06:49.635Z,67.90
2022-11-27T17:09:18.199Z,60.50
2022-11-27T17:11:50.992Z,59.20
2022-11-27T17:14:20.701Z,53.00
2022-11-27T17:16:50.570Z,49.40
2022-11-27T17:19:18.923Z,46.90
2022-11-27T17:21:47.715Z,53.00
2022-11-27T17:24:16.853Z,60.80
2022-11-27T17:26:47.310Z,64.70
2022-11-27T17:29:18.036Z,62.20
2022-11-27T17:31:46.220Z,66.60
2022-11-27T17:34:16.254Z,72.60
2022-11-27T17:36:46.030Z,78.80
2022-11-27T17:39:15.351Z,67.50
2022-11-27T17:41:45.272Z,60.70
2022-11-27T17:44:13.682Z,63.80
2022-11-27T17:46:42.002Z,61.20
2022-11-27T17:49:11.212Z,58.90
2022-11-27T17:51:41.378Z,58.90
2022-11-27T17:54:11.467Z,57.60
2022-11-27T17:56:40.058Z,60.10
2022-11-27T17:59:09.811Z,55.90
2022-11-27T18:01:38.260Z,54.70
2022-11-27T18:04:06.675Z,55.10
2022-11-27T18:06:36.130Z,59.10
2022-11-27T18:09:04.671Z,57.90
2022-11-27T18:11:34.161Z,55.70
2022-11-27T18:14:02.844Z,53.00
2022-11-27T18:16:35.253Z,54.70
2022-11-27T18:19:06.096Z,70.40
2022-11-27T18:21:35.363Z,64.60
2022-11-27T18:27:09.859Z,74.00
2022-11-27T18:29:41.055Z,75.90
2022-11-27T18:32:09.906Z,90.10
2022-11-27T18:34:38.668Z,103.80
2022-11-27T18:37:07.796Z,92.00
2022-11-27T18:39:36.954Z,90.60
2022-11-27T18:42:06.948Z,88.30
2022-11-27T18:44:39.686Z,81.50
2022-11-27T18:47:15.236Z,72.60
2022-11-27T18:49:47.461Z,71.00
2022-11-27T18:52:15.523Z,68.20
2022-11-27T18:54:44.453Z,62.00
2022-11-27T18:57:13.294Z,65.10
2022-11-27T18:59:43.918Z,66.00
2022-11-27T19:02:13.557Z,67.70
2022-11-27T19:04:44.443Z,68.70
2022-11-27T19:07:12.789Z,68.80
2022-11-27T19:09:41.196Z,87.90
2022-11-27T19:12:10.086Z,80.10
2022-11-27T19:14:38.659Z,71.60
2022-11-27T19:17:06.844Z,65.60
2022-11-27T19:22:25.335Z,64.40
2022-11-27T19:24:56.517Z,60.00
2022-11-27T19:27:24.625Z,59.60
2022-11-27T19:29:52.792Z,62.60
2022-11-27T19:32:21.032Z,73.00
2022-11-27T19:34:50.743Z,68.40
2022-11-27T19:37:33.709Z,99.20
2022-11-27T19:40:05.690Z,131.70
2022-11-27T19:42:34.072Z,130.20
2022-11-27T19:45:02.125Z,86.20
2022-11-27T19:47:30.186Z,77.80
2022-11-27T19:49:58.213Z,74.20
2022-11-27T19:52:26.640Z,71.60
2022-11-27T19:54:54.869Z,72.90
2022-11-27T19:57:23.057Z,67.80
2022-11-27T19:59:51.227Z,71.20
2022-11-27T20:02:19.642Z,77.90
2022-11-27T20:04:48.464Z,110.10
2022-11-27T20:07:16.527Z,127.40
2022-11-27T20:09:44.781Z,128.40
2022-11-27T20:12:12.822Z,120.80
2022-11-27T20:14:41.466Z,107.90
2022-11-27T20:17:09.808Z,127.50
2022-11-27T20:19:38.034Z,111.30
2022-11-27T20:22:06.836Z,115.20
2022-11-27T20:24:38.207Z,112.30
2022-11-27T20:27:12.688Z,106.50
2022-11-27T20:29:40.974Z,87.90
2022-11-27T20:32:09.411Z,88.20
2022-11-27T20:34:37.668Z,75.30
2022-11-27T20:37:06.101Z,77.10
2022-11-27T20:39:35.169Z,76.90
2022-11-27T20:42:03.530Z,84.20
2022-11-27T20:44:31.980Z,88.30
2022-11-27T20:47:00.111Z,80.60
2022-11-27T20:49:28.313Z,67.20
2022-11-27T20:52:00.092Z,64.70
2022-11-27T20:54:29.341Z,66.90
2022-11-27T20:56:57.359Z,64.20
2022-11-27T20:59:25.446Z,61.40
2022-11-27T21:01:53.672Z,56.00
2022-11-27T21:04:25.388Z,69.80
2022-11-27T21:06:54.248Z,66.90
2022-11-27T21:09:22.390Z,67.50
2022-11-27T21:11:50.438Z,65.80
2022-11-27T21:14:18.836Z,72.70
2022-11-27T21:16:49.269Z,62.70
2022-11-27T21:19:25.820Z,66.30
2022-11-27T21:21:56.466Z,80.10
2022-11-27T21:24:28.011Z,213.80
2022-11-27T21:26:56.997Z,200.40
2022-11-27T21:29:27.823Z,173.30
2022-11-27T21:31:57.281Z,84.40
2022-11-27T21:34:25.758Z,65.80
2022-11-27T21:36:54.223Z,66.00
2022-11-27T21:39:23.958Z,70.10
2022-11-27T21:41:54.383Z,73.70
2022-11-27T21:44:24.529Z,91.10
2022-11-27T21:46:52.700Z,124.00
2022-11-27T21:49:21.568Z,124.90
2022-11-27T21:51:53.981Z,105.80
2022-11-27T21:54:25.438Z,105.70
2022-11-27T21:56:53.555Z,124.00
2022-11-27T21:59:21.721Z,129.70
2022-11-27T22:01:50.301Z,141.90
2022-11-27T22:04:19.101Z,139.30
2022-11-27T22:06:48.261Z,134.10
2022-11-27T22:09:16.534Z,165.80
2022-11-27T22:11:46.514Z,157.60
2022-11-27T22:14:16.423Z,180.50
2022-11-27T22:16:46.832Z,149.90
2022-11-27T22:19:16.647Z,105.10
2022-11-27T22:21:45.595Z,90.20
2022-11-27T22:24:18.850Z,101.00
2022-11-27T22:26:48.778Z,112.00
2022-11-27T22:29:17.283Z,76.10
2022-11-27T22:31:45.342Z,100.70
2022-11-27T22:34:15.360Z,90.20
2022-11-27T22:36:43.436Z,121.10
2022-11-27T22:39:12.024Z,117.30
2022-11-27T22:41:41.209Z,90.30
2022-11-27T22:44:14.131Z,117.40
2022-11-27T22:46:42.694Z,79.50
2022-11-27T22:49:12.711Z,119.50
2022-11-27T22:51:41.601Z,94.30
2022-11-27T22:54:12.753Z,76.50
2022-11-27T22:56:41.490Z,104.00
2022-11-27T23:02:02.620Z,86.00
2022-11-27T23:04:31.087Z,83.70
2022-11-27T23:06:59.678Z,71.10
2022-11-27T23:09:27.843Z,63.20
2022-11-27T23:11:57.050Z,65.30
2022-11-27T23:14:26.488Z,63.30
2022-11-27T23:16:54.576Z,55.20
2022-11-27T23:19:22.708Z,58.00
2022-11-27T23:21:50.829Z,66.20
2022-11-27T23:24:18.878Z,62.40
2022-11-27T23:26:47.204Z,76.50
2022-11-27T23:29:15.268Z,50.30
2022-11-27T23:31:43.743Z,53.20
2022-11-27T23:34:15.495Z,65.40
2022-11-27T23:36:43.586Z,76.60
2022-11-27T23:39:13.534Z,77.70
2022-11-27T23:41:41.974Z,68.50
2022-11-27T23:44:09.950Z,68.80
2022-11-27T23:46:37.978Z,77.30
2022-11-27T23:49:06.199Z,69.10
2022-11-27T23:51:34.211Z,72.50
2022-11-27T23:54:06.006Z,72.30
2022-11-27T23:56:34.115Z,65.80
2022-11-27T23:59:02.180Z,93.70
